地図

経路データ

SID SEASON NUMBER BASIN SUBBASIN NAME ISO_TIME NATURE LAT LON WMO_WIND WMO_PRES WMO_AGENCY TRACK_TYPE DIST2LAND LANDFALL IFLAG USA_AGENCY USA_ATCF_ID USA_LAT USA_LON USA_RECORD USA_STATUS USA_WIND USA_PRES USA_SSHS USA_R34_NE USA_R34_SE USA_R34_SW USA_R34_NW USA_R50_NE USA_R50_SE USA_R50_SW USA_R50_NW USA_R64_NE USA_R64_SE USA_R64_SW USA_R64_NW USA_POCI USA_ROCI USA_RMW USA_EYE TOKYO_LAT TOKYO_LON TOKYO_GRADE TOKYO_WIND TOKYO_PRES TOKYO_R50_DIR TOKYO_R50_LONG TOKYO_R50_SHORT TOKYO_R30_DIR TOKYO_R30_LONG TOKYO_R30_SHORT TOKYO_LAND CMA_LAT CMA_LON CMA_CAT CMA_WIND CMA_PRES HKO_LAT HKO_LON HKO_CAT HKO_WIND HKO_PRES NEWDELHI_LAT NEWDELHI_LON NEWDELHI_GRADE NEWDELHI_WIND NEWDELHI_PRES NEWDELHI_CI NEWDELHI_DP NEWDELHI_POCI REUNION_LAT REUNION_LON REUNION_TYPE REUNION_WIND REUNION_PRES REUNION_TNUM REUNION_CI REUNION_RMW REUNION_R34_NE REUNION_R34_SE REUNION_R34_SW REUNION_R34_NW REUNION_R50_NE REUNION_R50_SE REUNION_R50_SW REUNION_R50_NW REUNION_R64_NE REUNION_R64_SE REUNION_R64_SW REUNION_R64_NW BOM_LAT BOM_LON BOM_TYPE BOM_WIND BOM_PRES BOM_TNUM BOM_CI BOM_RMW BOM_R34_NE BOM_R34_SE BOM_R34_SW BOM_R34_NW BOM_R50_NE BOM_R50_SE BOM_R50_SW BOM_R50_NW BOM_R64_NE BOM_R64_SE BOM_R64_SW BOM_R64_NW BOM_ROCI BOM_POCI BOM_EYE BOM_POS_METHOD BOM_PRES_METHOD NADI_LAT NADI_LON NADI_CAT NADI_WIND NADI_PRES WELLINGTON_LAT WELLINGTON_LON WELLINGTON_WIND WELLINGTON_PRES DS824_LAT DS824_LON DS824_STAGE DS824_WIND DS824_PRES TD9636_LAT TD9636_LON TD9636_STAGE TD9636_WIND TD9636_PRES TD9635_LAT TD9635_LON TD9635_WIND TD9635_PRES TD9635_ROCI NEUMANN_LAT NEUMANN_LON NEUMANN_CLASS NEUMANN_WIND NEUMANN_PRES MLC_LAT MLC_LON MLC_CLASS MLC_WIND MLC_PRES USA_GUST BOM_GUST BOM_GUST_PER REUNION_GUST REUNION_GUST_PER USA_SEAHGT USA_SEARAD_NE USA_SEARAD_SE USA_SEARAD_SW USA_SEARAD_NW STORM_SPEED STORM_DIR
1953259N23270 1953 55 NA GM NOT_NAMED 1953-09-15 18:00:00 TS 23.2000 -90.4000 30 hurdat_atl main 229 227 O_____________ hurdat_atl AL081953 23.2000 -90.4000 TD 30 -1 14 56
1953259N23270 1953 55 NA GM NOT_NAMED 1953-09-15 21:00:00 TS 23.5781 -89.7881 main 262 260 P_____________ AL081953 23.5781 -89.7881 TD 32 -1 14 54
1953259N23270 1953 55 NA GM NOT_NAMED 1953-09-16 00:00:00 TS 24.0000 -89.2000 35 hurdat_atl main 286 286 O_____________ hurdat_atl AL081953 24.0000 -89.2000 TS 35 0 14 49
1953259N23270 1953 55 NA GM NOT_NAMED 1953-09-16 03:00:00 TS 24.4921 -88.6497 main 335 335 P_____________ AL081953 24.4921 -88.6497 TS 37 0 14 45
1953259N23270 1953 55 NA GM NOT_NAMED 1953-09-16 06:00:00 TS 25.0000 -88.1000 40 hurdat_atl main 391 391 O_____________ hurdat_atl AL081953 25.0000 -88.1000 TS 40 0 15 46
1953259N23270 1953 55 NA GM NOT_NAMED 1953-09-16 09:00:00 TS 25.4950 -87.4927 main 421 403 P_____________ AL081953 25.4950 -87.4927 TS 42 0 14 50
1953259N23270 1953 55 NA GM NOT_NAMED 1953-09-16 12:00:00 TS 25.9000 -86.9000 45 hurdat_atl main 408 400 O_____________ hurdat_atl AL081953 25.9000 -86.9000 TS 45 0 12 56
1953259N23270 1953 55 NA GM NOT_NAMED 1953-09-16 15:00:00 TS 26.1597 -86.3770 main 394 345 P_____________ AL081953 26.1597 -86.3770 TS 45 0 10 66
1953259N23270 1953 55 NA GM NOT_NAMED 1953-09-16 18:00:00 TS 26.3000 -85.9000 45 hurdat_atl main 345 295 O_____________ hurdat_atl AL081953 26.3000 -85.9000 TS 45 0 9 75
1953259N23270 1953 55 NA GM NOT_NAMED 1953-09-16 21:00:00 TS 26.3951 -85.3974 main 295 258 P_____________ AL081953 26.3951 -85.3974 TS 45 0 8 83
1953259N23270 1953 55 NA GM NOT_NAMED 1953-09-17 00:00:00 TS 26.4000 -85.0000 45 1004 hurdat_atl main 258 236 O_____________ hurdat_atl AL081953 26.4000 -85.0000 TS 45 1004 0 6 96
1953259N23270 1953 55 NA GM NOT_NAMED 1953-09-17 03:00:00 TS 26.3297 -84.7372 main 236 236 P_____________ AL081953 26.3297 -84.7372 TS 42 0 3 127
1953259N23270 1953 55 NA GM NOT_NAMED 1953-09-17 06:00:00 TS 26.2000 -84.7000 40 hurdat_atl main 241 241 O_____________ hurdat_atl AL081953 26.2000 -84.7000 TS 40 0 4 213
1953259N23270 1953 55 NA GM NOT_NAMED 1953-09-17 09:00:00 TS 26.0353 -84.9554 main 279 279 P_____________ AL081953 26.0353 -84.9554 TS 40 0 6 241
1953259N23270 1953 55 NA GM NOT_NAMED 1953-09-17 12:00:00 TS 25.9000 -85.3000 40 hurdat_atl main 310 310 O_____________ hurdat_atl AL081953 25.9000 -85.3000 TS 40 0 5 251
1953259N23270 1953 55 NA GM NOT_NAMED 1953-09-17 15:00:00 TS 25.8774 -85.4724 main 327 327 P_____________ AL081953 25.8774 -85.4724 TS 40 0 3 270
1953259N23270 1953 55 NA GM NOT_NAMED 1953-09-17 18:00:00 TS 25.9000 -85.6000 40 hurdat_atl main 336 336 O_____________ hurdat_atl AL081953 25.9000 -85.6000 TS 40 0 2 274
1953259N23270 1953 55 NA GM NOT_NAMED 1953-09-17 21:00:00 TS 25.8925 -85.7425 main 345 345 P_____________ AL081953 25.8925 -85.7425 TS 40 0 3 270
1953259N23270 1953 55 NA GM NOT_NAMED 1953-09-18 00:00:00 TS 25.9000 -85.9000 40 hurdat_atl main 363 363 O_____________ hurdat_atl AL081953 25.9000 -85.9000 TS 40 0 3 275
1953259N23270 1953 55 NA GM NOT_NAMED 1953-09-18 03:00:00 TS 25.9199 -86.0702 main 381 381 P_____________ AL081953 25.9199 -86.0702 TS 37 0 4 286
1953259N23270 1953 55 NA GM NOT_NAMED 1953-09-18 06:00:00 TS 26.0000 -86.3000 35 hurdat_atl main 395 391 O_____________ hurdat_atl AL081953 26.0000 -86.3000 TS 35 0 6 294
1953259N23270 1953 55 NA GM NOT_NAMED 1953-09-18 09:00:00 TS 26.1703 -86.6945 main 391 356 P_____________ AL081953 26.1703 -86.6945 TS 35 0 7 303
1953259N23270 1953 55 NA GM NOT_NAMED 1953-09-18 12:00:00 TS 26.4000 -87.0000 35 hurdat_atl main 356 338 O_____________ hurdat_atl AL081953 26.4000 -87.0000 TS 35 0 5 334
1953259N23270 1953 55 NA GM NOT_NAMED 1953-09-18 15:00:00 TS 26.6499 -86.9604 main 338 325 P_____________ AL081953 26.6499 -86.9604 TS 32 -1 5 20
1953259N23270 1953 55 NA GM NOT_NAMED 1953-09-18 18:00:00 TS 26.9000 -86.8000 30 hurdat_atl main 325 309 O_____________ hurdat_atl AL081953 26.9000 -86.8000 TD 30 -1 5 23
1953259N23270 1953 55 NA GM NOT_NAMED 1953-09-18 21:00:00 TS 27.1075 -86.7499 main 316 296 P_____________ AL081953 27.1075 -86.7499 TD 30 -1 4 12
1953259N23270 1953 55 NA GM NOT_NAMED 1953-09-19 00:00:00 TS 27.3000 -86.7000 30 hurdat_atl main 296 272 O_____________ hurdat_atl AL081953 27.3000 -86.7000 TD 30 -1 4 17
1953259N23270 1953 55 NA GM NOT_NAMED 1953-09-19 03:00:00 TS 27.5000 -86.6075 main 272 247 P_____________ AL081953 27.5000 -86.6075 TD 30 -1 4 24
1953259N23270 1953 55 NA GM NOT_NAMED 1953-09-19 06:00:00 TS 27.7000 -86.5000 30 hurdat_atl main 247 223 O_____________ hurdat_atl AL081953 27.7000 -86.5000 TD 30 -1 4 22
1953259N23270 1953 55 NA GM NOT_NAMED 1953-09-19 09:00:00 TS 27.8999 -86.4223 main 223 198 P_____________ AL081953 27.8999 -86.4223 TD 30 -1 4 24
1953259N23270 1953 55 NA GM NOT_NAMED 1953-09-19 12:00:00 TS 28.1000 -86.3000 30 hurdat_atl main 198 170 O_____________ hurdat_atl AL081953 28.1000 -86.3000 TD 30 -1 5 36
1953259N23270 1953 55 NA GM NOT_NAMED 1953-09-19 15:00:00 TS 28.3075 -86.0875 main 170 139 P_____________ AL081953 28.3075 -86.0875 TD 30 -1 6 48
1953259N23270 1953 55 NA GM NOT_NAMED 1953-09-19 18:00:00 TS 28.5000 -85.8000 30 hurdat_atl main 139 112 O_____________ hurdat_atl AL081953 28.5000 -85.8000 TD 30 -1 7 57
1953259N23270 1953 55 NA GM NOT_NAMED 1953-09-19 21:00:00 TS 28.6650 -85.4650 main 112 100 P_____________ AL081953 28.6650 -85.4650 TD 30 -1 7 64
1953259N23270 1953 55 NA GM NOT_NAMED 1953-09-20 00:00:00 TS 28.8000 -85.1000 30 hurdat_atl main 100 89 O_____________ hurdat_atl AL081953 28.8000 -85.1000 TD 30 -1 7 67
1953259N23270 1953 55 NA GM NOT_NAMED 1953-09-20 03:00:00 TS 28.9223 -84.7650 main 89 80 P_____________ AL081953 28.9223 -84.7650 TD 32 -1 6 72
1953259N23270 1953 55 NA GM NOT_NAMED 1953-09-20 06:00:00 TS 29.0000 -84.4000 35 hurdat_atl main 91 80 O_____________ hurdat_atl AL081953 29.0000 -84.4000 TS 35 0 7 83
1953259N23270 1953 55 NA GM NOT_NAMED 1953-09-20 09:00:00 TS 29.0147 -83.9595 main 80 44 P_____________ AL081953 29.0147 -83.9595 TS 35 0 8 90
1953259N23270 1953 55 NA GM NOT_NAMED 1953-09-20 12:00:00 TS 29.0000 -83.5000 35 hurdat_atl main 44 22 O_____________ hurdat_atl AL081953 29.0000 -83.5000 TS 35 0 8 91
1953259N23270 1953 55 NA GM NOT_NAMED 1953-09-20 15:00:00 TS 29.0000 -83.0495 main 19 0 P_____________ AL081953 29.0000 -83.0495 TS 35 0 7 90
1953259N23270 1953 55 NA GM NOT_NAMED 1953-09-20 17:00:00 TS 29.0000 -82.8000 35 hurdat_atl main 0 0 O_____________ hurdat_atl AL081953 29.0000 -82.8000 L TS 35 0 6 90
1953259N23270 1953 55 NA GM NOT_NAMED 1953-09-20 18:00:00 TS 29.0000 -82.7000 35 hurdat_atl main 0 0 O_____________ hurdat_atl AL081953 29.0000 -82.7000 TS 35 0 6 90
1953259N23270 1953 55 NA NA NOT_NAMED 1953-09-20 21:00:00 TS 29.0003 -82.3356 main 0 0 P_____________ AL081953 29.0003 -82.3356 TS 30 -1 7 90
1953259N23270 1953 55 NA NA NOT_NAMED 1953-09-21 00:00:00 TS 29.0000 -81.9000 25 hurdat_atl main 0 O_____________ hurdat_atl AL081953 29.0000 -81.9000 TD 25 -1 8 90

IBTrACS Databaseについて

本データベースは、米国NOAAが公開する1842年以降の世界の熱帯低気圧のベストトラックデータアーカイブInternational Best Track Archive for Climate Stewardship (IBTrACS)を、ウェブで閲覧しやすい形式に変換したものです。

最終更新日:2021-10-08